createdAt,value
2017-10-06T00:01:22.743Z,1.48
2017-10-06T00:03:50.012Z,1.25
2017-10-06T00:06:16.323Z,1.53
2017-10-06T00:08:42.627Z,1.20
2017-10-06T00:11:08.899Z,1.37
2017-10-06T00:13:35.241Z,1.50
2017-10-06T00:16:01.599Z,1.30
2017-10-06T00:18:28.773Z,2.05
2017-10-06T00:20:55.205Z,1.17
2017-10-06T00:23:21.612Z,1.20
2017-10-06T00:25:48.028Z,1.33
2017-10-06T00:28:14.412Z,1.12
2017-10-06T00:30:40.844Z,1.83
2017-10-06T00:33:07.317Z,1.40
2017-10-06T00:35:33.816Z,1.20
2017-10-06T00:38:00.216Z,1.98
2017-10-06T00:40:26.680Z,1.23
2017-10-06T00:42:53.862Z,1.40
2017-10-06T00:45:20.305Z,1.05
2017-10-06T00:47:46.816Z,1.87
2017-10-06T00:50:13.213Z,1.35
2017-10-06T00:52:39.604Z,1.62
2017-10-06T00:55:06.052Z,1.10
2017-10-06T00:57:32.492Z,1.60
2017-10-06T00:59:59.981Z,1.12
2017-10-06T01:02:27.109Z,1.63
2017-10-06T01:04:54.280Z,1.87
2017-10-06T01:07:20.696Z,1.20
2017-10-06T01:09:47.117Z,1.70
2017-10-06T01:12:13.532Z,1.83
2017-10-06T01:14:39.972Z,2.67
2017-10-06T01:17:06.365Z,1.80
2017-10-06T01:19:33.852Z,1.83
2017-10-06T01:22:00.284Z,1.23
2017-10-06T01:24:26.764Z,1.87
2017-10-06T01:26:53.159Z,2.20
2017-10-06T01:29:19.632Z,1.75
2017-10-06T01:31:46.820Z,1.95
2017-10-06T01:34:13.252Z,1.75
2017-10-06T01:36:40.708Z,1.77
2017-10-06T01:39:07.134Z,1.40
2017-10-06T01:41:33.559Z,1.80
2017-10-06T01:44:00.021Z,1.45
2017-10-06T01:46:26.456Z,1.45
2017-10-06T01:48:52.875Z,2.53
2017-10-06T01:51:19.289Z,1.67
2017-10-06T01:53:45.699Z,1.92
2017-10-06T01:56:12.144Z,1.77
2017-10-06T01:58:38.588Z,2.33
2017-10-06T02:01:05.740Z,1.40
2017-10-06T02:03:32.844Z,1.90
2017-10-06T02:05:59.258Z,1.40
2017-10-06T02:08:25.621Z,1.50
2017-10-06T02:10:52.079Z,1.55
2017-10-06T02:13:18.513Z,1.77
2017-10-06T02:15:45.624Z,1.27
2017-10-06T02:18:12.062Z,2.10
2017-10-06T02:20:38.528Z,1.80
2017-10-06T02:23:04.924Z,1.50
2017-10-06T02:25:31.336Z,1.90
2017-10-06T02:27:57.776Z,1.70
2017-10-06T02:30:24.197Z,2.30
2017-10-06T02:32:50.602Z,1.60
2017-10-06T02:35:17.025Z,2.12
2017-10-06T02:37:43.441Z,1.95
2017-10-06T02:40:09.872Z,2.83
2017-10-06T02:42:36.316Z,1.90
2017-10-06T02:45:02.716Z,2.00
2017-10-06T02:47:29.136Z,1.85
2017-10-06T02:49:55.528Z,1.70
2017-10-06T02:52:21.885Z,1.70
2017-10-06T02:54:48.276Z,1.52
2017-10-06T02:57:14.696Z,2.70
2017-10-06T02:59:41.113Z,1.65
2017-10-06T03:02:07.516Z,1.95
2017-10-06T03:04:34.308Z,2.17
2017-10-06T04:28:57.816Z,2.37
2017-10-06T04:31:24.217Z,3.15
2017-10-06T04:33:50.596Z,3.55
2017-10-06T04:36:16.997Z,3.03
2017-10-06T04:38:43.404Z,2.70
2017-10-06T04:41:09.857Z,3.60
2017-10-06T04:43:36.267Z,2.85
2017-10-06T04:46:03.364Z,3.20
2017-10-06T04:48:29.761Z,3.90
2017-10-06T04:50:56.248Z,2.92
2017-10-06T04:53:23.348Z,2.75
2017-10-06T04:55:49.759Z,3.28
2017-10-06T04:58:16.954Z,3.05
2017-10-06T05:00:43.376Z,2.65
2017-10-06T05:03:09.809Z,3.30
2017-10-06T05:05:36.308Z,2.70
2017-10-06T05:08:02.712Z,3.10
2017-10-06T05:10:29.152Z,2.92
2017-10-06T05:12:55.564Z,3.20
2017-10-06T05:15:21.989Z,3.05
2017-10-06T05:17:48.417Z,2.62
2017-10-06T05:20:14.852Z,3.55
2017-10-06T05:22:41.282Z,3.05
2017-10-06T05:25:07.708Z,3.62
2017-10-06T05:27:34.164Z,3.70
2017-10-06T05:30:00.548Z,2.83
2017-10-06T05:32:27.627Z,3.20
2017-10-06T05:34:54.052Z,3.90
2017-10-06T05:37:20.467Z,3.47
2017-10-06T05:39:46.896Z,3.33
2017-10-06T05:42:13.304Z,2.70
2017-10-06T05:44:41.464Z,2.97
2017-10-06T05:47:07.860Z,3.30
2017-10-06T05:49:34.280Z,3.30
2017-10-06T05:52:00.674Z,3.33
2017-10-06T05:54:28.126Z,4.07
2017-10-06T05:56:54.564Z,3.95
2017-10-06T05:59:20.953Z,4.10
2017-10-06T06:01:47.331Z,2.80
2017-10-06T06:04:13.844Z,2.87
2017-10-06T06:06:40.972Z,3.83
2017-10-06T06:09:07.377Z,4.28
2017-10-06T06:11:34.529Z,3.70
2017-10-06T06:14:00.978Z,3.17
2017-10-06T06:16:27.419Z,3.30
2017-10-06T06:18:53.864Z,3.22
2017-10-06T06:21:20.324Z,3.60
2017-10-06T06:23:47.504Z,2.55
2017-10-06T06:26:13.899Z,3.53
2017-10-06T06:28:41.408Z,2.55
2017-10-06T06:31:07.754Z,2.45
2017-10-06T06:33:34.208Z,2.58
2017-10-06T06:36:00.570Z,2.92
2017-10-06T06:38:27.712Z,3.80
2017-10-06T06:40:54.144Z,3.10
2017-10-06T06:43:20.508Z,2.90
2017-10-06T06:45:47.698Z,3.20
2017-10-06T06:48:14.117Z,3.30
2017-10-06T06:50:40.576Z,3.25
2017-10-06T06:53:07.764Z,3.35
2017-10-06T06:55:34.224Z,2.87
2017-10-06T06:58:00.680Z,2.78
2017-10-06T07:00:27.111Z,2.50
2017-10-06T07:02:53.575Z,3.72
2017-10-06T07:05:19.992Z,2.78
2017-10-06T07:07:46.392Z,2.70
2017-10-06T07:10:12.880Z,2.90
2017-10-06T07:12:39.313Z,2.67
2017-10-06T07:15:05.794Z,2.85
2017-10-06T07:17:32.240Z,2.83
2017-10-06T07:19:58.712Z,2.72
2017-10-06T07:22:25.870Z,2.50
2017-10-06T07:24:52.329Z,2.20
2017-10-06T07:27:18.783Z,2.42
2017-10-06T07:29:45.953Z,2.55
2017-10-06T07:32:12.413Z,1.85
2017-10-06T07:34:38.816Z,2.70
2017-10-06T07:37:05.299Z,2.33
2017-10-06T07:39:31.696Z,2.47
2017-10-06T07:41:58.149Z,2.15
2017-10-06T07:44:24.563Z,3.08
2017-10-06T07:46:51.001Z,2.75
2017-10-06T07:49:17.368Z,2.75
2017-10-06T07:51:44.512Z,2.50
2017-10-06T07:54:10.984Z,2.65
2017-10-06T07:56:37.384Z,2.05
2017-10-06T07:59:03.816Z,2.40
2017-10-06T08:01:30.984Z,2.80
2017-10-06T08:03:58.084Z,2.80
2017-10-06T08:06:24.492Z,3.00
2017-10-06T08:08:50.913Z,2.60
2017-10-06T08:11:17.332Z,3.43
2017-10-06T08:13:43.844Z,3.20
2017-10-06T08:16:10.261Z,3.22
2017-10-06T08:18:36.693Z,3.70
2017-10-06T08:21:03.045Z,3.80
2017-10-06T08:23:29.531Z,3.80
2017-10-06T08:25:55.944Z,3.77
2017-10-06T08:28:22.348Z,3.50
2017-10-06T08:30:48.817Z,3.63
2017-10-06T08:33:15.321Z,2.87
2017-10-06T08:35:41.784Z,3.03
2017-10-06T08:38:09.044Z,2.70
2017-10-06T08:40:35.533Z,3.20
2017-10-06T08:43:01.980Z,3.10
2017-10-06T08:45:29.204Z,2.40
2017-10-06T08:47:55.599Z,2.30
2017-10-06T08:50:21.956Z,2.45
2017-10-06T08:52:49.112Z,2.30
2017-10-06T08:55:16.306Z,2.25
2017-10-06T08:57:42.701Z,2.97
2017-10-06T09:00:09.152Z,2.60
2017-10-06T09:02:35.556Z,3.20
2017-10-06T09:05:01.973Z,1.98
2017-10-06T09:07:28.421Z,2.03
2017-10-06T09:09:54.810Z,2.50
2017-10-06T09:12:23.176Z,2.10
2017-10-06T09:14:49.584Z,1.90
2017-10-06T09:17:17.060Z,1.63
2017-10-06T09:19:44.156Z,1.93
2017-10-06T09:22:10.553Z,1.90
2017-10-06T09:24:36.950Z,1.77
2017-10-06T09:27:03.328Z,1.70
2017-10-06T09:29:29.748Z,2.30
2017-10-06T09:31:56.144Z,1.77
2017-10-06T09:34:22.552Z,2.00
2017-10-06T09:36:48.981Z,2.20
2017-10-06T09:39:16.364Z,2.73
2017-10-06T09:41:43.527Z,2.00
2017-10-06T09:44:09.955Z,1.90
2017-10-06T09:46:36.409Z,1.93
2017-10-06T09:49:04.640Z,2.07
2017-10-06T09:51:31.063Z,2.53
2017-10-06T09:53:57.456Z,2.10
2017-10-06T09:56:23.923Z,2.00
2017-10-06T09:58:51.469Z,1.83
2017-10-06T10:01:18.061Z,1.63
2017-10-06T10:03:44.462Z,1.53
2017-10-06T10:06:10.892Z,1.73
2017-10-06T10:08:37.252Z,1.50
2017-10-06T10:11:03.686Z,1.80
2017-10-06T10:13:31.064Z,1.47
2017-10-06T10:15:57.465Z,1.77
2017-10-06T10:18:23.852Z,1.90
2017-10-06T10:20:50.328Z,2.13
2017-10-06T10:23:16.673Z,1.37
2017-10-06T10:25:43.044Z,1.90
2017-10-06T10:28:09.844Z,1.50
2017-10-06T10:30:36.237Z,3.03
2017-10-06T10:33:03.409Z,1.70
2017-10-06T10:35:29.860Z,1.83
2017-10-06T10:37:56.339Z,2.00
2017-10-06T10:40:22.716Z,1.20
2017-10-06T10:42:50.233Z,1.47
2017-10-06T10:45:16.672Z,2.17
2017-10-06T10:47:43.064Z,1.43
2017-10-06T10:50:10.262Z,1.20
2017-10-06T10:52:36.716Z,1.50
2017-10-06T10:55:03.141Z,1.10
2017-10-06T10:57:30.348Z,1.47
2017-10-06T10:59:56.782Z,1.17
2017-10-06T11:02:23.217Z,1.20
2017-10-06T11:04:50.460Z,1.07
2017-10-06T11:07:17.660Z,1.20
2017-10-06T11:09:44.076Z,1.23
2017-10-06T11:12:10.483Z,0.77
2017-10-06T11:14:36.886Z,0.70
2017-10-06T11:17:03.316Z,1.93
2017-10-06T11:19:29.713Z,1.27
2017-10-06T11:21:57.219Z,1.47
2017-10-06T11:24:24.404Z,1.00
2017-10-06T11:26:50.830Z,0.90
2017-10-06T11:29:17.272Z,0.90
2017-10-06T11:31:43.788Z,0.93
2017-10-06T11:34:10.960Z,0.97
2017-10-06T11:36:38.144Z,0.70
2017-10-06T11:39:04.556Z,0.80
2017-10-06T11:41:30.966Z,1.17
2017-10-06T11:43:57.424Z,1.40
2017-10-06T11:46:23.867Z,1.07
2017-10-06T11:48:50.373Z,1.20
2017-10-06T11:51:17.517Z,0.90
2017-10-06T11:53:44.715Z,0.90
2017-10-06T11:56:11.177Z,0.80
2017-10-06T11:58:37.623Z,1.30
2017-10-06T12:01:04.104Z,0.87
2017-10-06T12:03:31.308Z,1.00
2017-10-06T12:05:57.708Z,1.20
2017-10-06T12:08:24.112Z,1.20
2017-10-06T12:10:50.545Z,1.40
2017-10-06T12:13:16.940Z,1.47
2017-10-06T12:15:43.343Z,1.30
2017-10-06T12:18:09.785Z,0.97
2017-10-06T12:20:36.192Z,1.10
2017-10-06T12:23:02.628Z,0.80
2017-10-06T12:25:29.049Z,1.07
2017-10-06T12:27:55.484Z,1.20
2017-10-06T12:30:21.944Z,1.00
2017-10-06T12:32:48.404Z,0.93
2017-10-06T12:35:14.836Z,1.40
2017-10-06T12:37:41.254Z,0.70
2017-10-06T12:40:08.433Z,1.00
2017-10-06T12:42:34.889Z,0.50
2017-10-06T12:45:01.309Z,0.80
2017-10-06T12:47:27.744Z,1.67
2017-10-06T12:49:54.160Z,0.90
2017-10-06T12:52:20.531Z,0.93
2017-10-06T12:54:47.008Z,0.73
2017-10-06T12:57:13.445Z,1.20
2017-10-06T12:59:40.653Z,0.57
2017-10-06T13:02:07.126Z,0.90
2017-10-06T13:04:33.545Z,0.90
2017-10-06T13:06:59.964Z,0.70
2017-10-06T13:09:26.372Z,0.90
2017-10-06T13:11:52.805Z,1.57
2017-10-06T13:14:19.231Z,0.73
2017-10-06T13:16:45.697Z,1.07
2017-10-06T13:19:12.108Z,0.80
2017-10-06T13:21:39.276Z,0.90
2017-10-06T13:24:05.720Z,0.80
2017-10-06T13:26:32.088Z,1.03
2017-10-06T13:28:58.497Z,0.90
2017-10-06T13:31:24.952Z,1.30
2017-10-06T13:33:51.332Z,1.30
2017-10-06T13:36:17.740Z,0.90
2017-10-06T13:38:44.196Z,1.30
2017-10-06T13:41:10.584Z,1.03
2017-10-06T13:43:37.668Z,1.10
2017-10-06T13:46:04.094Z,1.37
2017-10-06T13:48:31.244Z,1.30
2017-10-06T13:50:58.411Z,1.60
2017-10-06T13:53:24.811Z,1.47
2017-10-06T13:55:51.228Z,1.43
2017-10-06T13:58:20.360Z,2.10
2017-10-06T14:00:46.772Z,1.43
2017-10-06T14:03:13.157Z,1.50
2017-10-06T14:05:39.966Z,1.80
2017-10-06T14:08:07.100Z,1.63
2017-10-06T14:10:33.553Z,1.70
2017-10-06T14:12:59.940Z,1.37
2017-10-06T14:15:26.366Z,1.73
2017-10-06T14:17:52.796Z,1.87
2017-10-06T14:20:19.221Z,1.67
2017-10-06T14:22:45.601Z,1.93
2017-10-06T14:25:12.040Z,1.20
2017-10-06T14:27:38.457Z,1.57
2017-10-06T14:30:04.861Z,1.20
2017-10-06T14:32:31.318Z,1.70
2017-10-06T14:34:57.742Z,1.33
2017-10-06T14:37:24.172Z,1.13
2017-10-06T14:39:50.568Z,1.43
2017-10-06T14:42:17.008Z,1.00
2017-10-06T14:44:43.413Z,1.30
2017-10-06T14:47:09.777Z,1.07
2017-10-06T14:49:38.040Z,1.10
2017-10-06T14:52:04.451Z,1.37
2017-10-06T14:54:30.916Z,1.13
2017-10-06T14:56:57.345Z,1.30
2017-10-06T14:59:24.480Z,1.57
2017-10-06T15:01:50.919Z,1.50
2017-10-06T15:04:17.352Z,1.10
2017-10-06T15:06:44.569Z,1.77
2017-10-06T15:09:11.044Z,1.20
2017-10-06T15:11:37.460Z,1.40
2017-10-06T15:14:03.894Z,1.20
2017-10-06T15:16:30.365Z,1.33
2017-10-06T15:18:56.787Z,1.70
2017-10-06T15:21:23.200Z,1.90
2017-10-06T15:23:49.640Z,1.83
2017-10-06T15:26:16.052Z,1.70
2017-10-06T15:28:42.437Z,1.20
2017-10-06T15:31:10.329Z,1.60
2017-10-06T15:33:36.738Z,1.57
2017-10-06T15:36:03.137Z,1.63
2017-10-06T15:38:29.575Z,1.60
2017-10-06T15:40:55.976Z,2.10
2017-10-06T15:43:22.355Z,1.67
2017-10-06T15:45:49.616Z,1.57
2017-10-06T15:48:17.111Z,1.80
2017-10-06T15:50:43.501Z,1.67
2017-10-06T15:53:09.925Z,1.43
2017-10-06T15:55:36.293Z,1.60
2017-10-06T15:58:02.700Z,1.63
2017-10-06T16:00:29.143Z,1.83
2017-10-06T16:02:56.292Z,1.50
2017-10-06T16:05:22.732Z,1.33
2017-10-06T16:07:49.343Z,1.97
2017-10-06T16:10:15.833Z,1.50
2017-10-06T16:12:42.290Z,1.50
2017-10-06T16:15:08.684Z,1.00
2017-10-06T16:17:35.128Z,1.50
2017-10-06T16:20:01.600Z,1.20
2017-10-06T16:22:28.741Z,0.93
2017-10-06T16:24:55.136Z,1.30
2017-10-06T16:27:22.291Z,1.63
2017-10-06T16:29:48.740Z,1.67
2017-10-06T16:32:15.112Z,0.83
2017-10-06T16:34:41.600Z,1.37
2017-10-06T16:37:08.053Z,1.07
2017-10-06T16:39:34.476Z,1.53
2017-10-06T16:42:01.841Z,1.20
2017-10-06T16:44:29.254Z,1.13
2017-10-06T16:46:55.999Z,1.30
2017-10-06T16:49:23.639Z,0.83
2017-10-06T16:51:52.217Z,1.17
2017-10-06T16:54:19.965Z,1.53
2017-10-06T16:56:47.712Z,1.10
2017-10-06T16:59:15.255Z,1.00
2017-10-06T17:01:42.097Z,1.30
2017-10-06T17:04:09.419Z,1.10
2017-10-06T17:06:36.336Z,1.30
2017-10-06T17:09:03.300Z,1.30
2017-10-06T17:11:30.821Z,1.37
2017-10-06T17:13:57.854Z,1.50
2017-10-06T17:16:25.601Z,1.47
2017-10-06T17:18:52.631Z,1.30
2017-10-06T17:21:20.277Z,1.00
2017-10-06T17:23:47.521Z,0.83
2017-10-06T17:26:16.431Z,1.40
2017-10-06T17:28:45.315Z,1.30
2017-10-06T17:31:14.507Z,1.60
2017-10-06T17:33:43.782Z,1.20
2017-10-06T17:36:12.560Z,1.90
2017-10-06T17:38:41.733Z,1.40
2017-10-06T17:41:10.911Z,1.03
2017-10-06T17:43:39.880Z,0.80
2017-10-06T17:46:08.688Z,1.53
2017-10-06T17:48:37.436Z,1.40
2017-10-06T17:51:06.405Z,1.13
2017-10-06T17:53:35.601Z,1.40
2017-10-06T17:56:04.685Z,1.57
2017-10-06T17:58:33.364Z,1.50
2017-10-06T18:01:02.415Z,1.57
2017-10-06T18:03:32.113Z,1.60
2017-10-06T18:06:01.065Z,1.33
2017-10-06T18:08:30.302Z,2.40
2017-10-06T18:10:59.021Z,1.30
2017-10-06T18:13:27.902Z,1.70
2017-10-06T18:15:57.004Z,1.83
2017-10-06T18:18:25.737Z,1.60
2017-10-06T18:20:54.849Z,1.83
2017-10-06T18:23:23.652Z,2.07
2017-10-06T18:25:52.799Z,1.77
2017-10-06T18:28:21.683Z,2.37
2017-10-06T18:30:50.806Z,3.00
2017-10-06T18:33:19.491Z,2.03
2017-10-06T18:35:48.377Z,2.23
2017-10-06T18:38:17.872Z,2.63
2017-10-06T18:40:47.552Z,1.90
2017-10-06T18:43:16.195Z,2.33
2017-10-06T18:45:44.995Z,2.53
2017-10-06T18:48:13.651Z,2.80
2017-10-06T18:50:42.457Z,2.60
2017-10-06T18:53:11.438Z,2.30
2017-10-06T18:55:40.435Z,2.50
2017-10-06T18:58:10.284Z,3.07
2017-10-06T19:00:38.956Z,3.00
2017-10-06T19:03:08.118Z,2.73
2017-10-06T19:05:37.108Z,3.07
2017-10-06T19:08:06.221Z,2.45
2017-10-06T19:10:34.959Z,2.50
2017-10-06T19:13:04.456Z,2.43
2017-10-06T19:15:33.885Z,3.10
2017-10-06T19:18:02.841Z,2.95
2017-10-06T19:20:31.479Z,2.65
2017-10-06T19:23:00.186Z,2.70
2017-10-06T19:25:29.214Z,2.65
2017-10-06T19:27:57.591Z,3.12
2017-10-06T19:30:26.406Z,3.25
2017-10-06T19:32:55.493Z,2.35
2017-10-06T19:35:24.356Z,2.62
2017-10-06T19:37:53.451Z,2.80
2017-10-06T19:40:22.073Z,3.15
2017-10-06T19:42:51.765Z,3.20
2017-10-06T19:45:20.770Z,3.00
2017-10-06T19:47:49.865Z,3.00
2017-10-06T19:50:19.017Z,2.83
2017-10-06T19:52:48.604Z,2.97
2017-10-06T19:55:17.614Z,2.53
2017-10-06T19:57:46.239Z,3.77
2017-10-06T20:00:15.954Z,3.10
2017-10-06T20:02:45.142Z,3.23
2017-10-06T20:05:14.192Z,3.05
2017-10-06T20:07:43.515Z,3.45
2017-10-06T20:10:12.681Z,2.90
2017-10-06T20:12:42.591Z,3.45
2017-10-06T20:15:11.556Z,3.50
2017-10-06T20:17:41.438Z,3.58
2017-10-06T20:20:10.203Z,3.95
2017-10-06T20:22:39.578Z,3.87
2017-10-06T20:25:10.322Z,4.18
2017-10-06T20:27:39.101Z,4.10
2017-10-06T20:30:08.612Z,4.05
2017-10-06T20:32:37.221Z,3.80
2017-10-06T20:35:07.029Z,4.40
2017-10-06T20:37:36.624Z,3.83
2017-10-06T20:40:05.630Z,4.25
2017-10-06T20:42:34.599Z,4.45
2017-10-06T20:45:03.337Z,3.62
2017-10-06T20:47:32.258Z,4.07
2017-10-06T20:50:00.916Z,4.20
2017-10-06T20:52:39.831Z,4.75
2017-10-06T20:55:08.537Z,4.40
2017-10-06T20:57:37.241Z,4.03
2017-10-06T21:00:06.345Z,4.50
2017-10-06T21:02:36.057Z,4.00
2017-10-06T21:05:05.020Z,4.05
2017-10-06T21:07:34.837Z,4.57
2017-10-06T21:10:03.790Z,5.12
2017-10-06T21:12:33.350Z,4.45
2017-10-06T21:15:02.147Z,4.75
2017-10-06T21:17:30.781Z,4.10
2017-10-06T21:19:59.800Z,4.00
2017-10-06T21:22:28.640Z,3.90
2017-10-06T21:24:57.801Z,4.18
2017-10-06T21:27:27.345Z,3.47
2017-10-06T21:29:56.308Z,4.00
2017-10-06T21:32:26.219Z,3.70
2017-10-06T21:34:54.820Z,3.45
2017-10-06T21:37:23.423Z,3.33
2017-10-06T21:39:52.078Z,3.22
2017-10-06T21:42:21.184Z,4.13
2017-10-06T21:44:49.749Z,3.30
2017-10-06T21:47:18.796Z,3.03
2017-10-06T21:49:47.549Z,3.57
2017-10-06T21:52:15.461Z,4.20
2017-10-06T21:54:42.203Z,3.23
2017-10-06T21:57:08.594Z,3.57
2017-10-06T21:59:34.884Z,4.27
2017-10-06T22:02:01.220Z,3.87
2017-10-06T22:04:27.499Z,4.57
2017-10-06T22:06:53.876Z,3.60
2017-10-06T22:09:21.057Z,3.67
2017-10-06T22:11:47.331Z,4.17
2017-10-06T22:14:13.618Z,3.40
2017-10-06T22:16:39.919Z,3.47
2017-10-06T22:19:06.214Z,3.43
2017-10-06T22:21:32.487Z,4.00
2017-10-06T22:23:59.586Z,3.73
2017-10-06T22:26:25.871Z,3.37
2017-10-06T22:28:52.178Z,3.13
2017-10-06T22:31:18.500Z,3.80
2017-10-06T22:33:44.791Z,3.70
2017-10-06T22:36:11.042Z,3.30
2017-10-06T22:38:37.325Z,3.30
2017-10-06T22:41:04.358Z,2.90
2017-10-06T22:43:30.623Z,4.00
2017-10-06T22:45:56.898Z,3.60
2017-10-06T22:48:23.194Z,2.80
2017-10-06T22:50:50.223Z,3.17
2017-10-06T22:53:17.222Z,3.50
2017-10-06T22:55:43.526Z,3.40
2017-10-06T22:58:09.778Z,3.13
2017-10-06T23:00:36.053Z,3.80
2017-10-06T23:03:02.351Z,2.90
2017-10-06T23:05:28.662Z,3.10
2017-10-06T23:07:54.930Z,3.17
2017-10-06T23:10:22.561Z,3.10
2017-10-06T23:12:48.858Z,2.87
2017-10-06T23:15:15.201Z,2.77
2017-10-06T23:17:41.478Z,3.00
2017-10-06T23:20:07.779Z,3.07
2017-10-06T23:22:34.042Z,2.73
2017-10-06T23:25:01.067Z,3.20
2017-10-06T23:27:28.070Z,2.77
2017-10-06T23:29:54.326Z,2.90
2017-10-06T23:32:21.351Z,2.80
2017-10-06T23:34:47.610Z,2.73
2017-10-06T23:37:13.891Z,3.30
2017-10-06T23:39:40.162Z,3.53
2017-10-06T23:42:06.432Z,3.00
2017-10-06T23:44:32.690Z,2.20
2017-10-06T23:46:58.958Z,2.63
2017-10-06T23:49:25.227Z,2.93
2017-10-06T23:51:51.494Z,3.90
2017-10-06T23:54:17.777Z,2.73
2017-10-06T23:56:44.043Z,3.07
2017-10-06T23:59:10.294Z,2.90
